createdAt,value
2023-04-10T00:00:38.306Z,52.75
2023-04-10T00:03:06.141Z,53.00
2023-04-10T00:05:33.412Z,53.03
2023-04-10T00:08:00.916Z,53.21
2023-04-10T00:10:30.502Z,53.05
2023-04-10T00:12:59.074Z,52.76
2023-04-10T00:15:26.401Z,52.97
2023-04-10T00:17:55.479Z,53.09
2023-04-10T00:20:23.600Z,53.05
2023-04-10T00:22:50.791Z,52.98
2023-04-10T00:25:18.051Z,53.26
2023-04-10T00:27:45.264Z,53.21
2023-04-10T00:30:12.739Z,53.56
2023-04-10T00:32:39.842Z,53.37
2023-04-10T00:35:09.042Z,53.23
2023-04-10T00:37:36.599Z,53.34
2023-04-10T00:40:05.161Z,53.51
2023-04-10T00:42:33.035Z,53.76
2023-04-10T00:45:00.762Z,53.36
2023-04-10T00:47:28.966Z,53.47
2023-04-10T00:49:56.278Z,53.63
2023-04-10T00:52:26.507Z,53.36
2023-04-10T00:54:53.561Z,53.51
2023-04-10T00:57:20.635Z,53.65
2023-04-10T00:59:48.980Z,53.89
2023-04-10T01:02:16.227Z,53.87
2023-04-10T01:04:44.600Z,54.08
2023-04-10T01:07:39.630Z,54.09
2023-04-10T01:10:18.299Z,53.99
2023-04-10T01:13:14.272Z,54.03
2023-04-10T01:16:02.921Z,53.99
2023-04-10T01:18:56.306Z,54.07
2023-04-10T01:21:24.481Z,54.27
2023-04-10T01:24:30.438Z,54.09
2023-04-10T01:27:39.302Z,54.14
2023-04-10T01:30:12.531Z,54.01
2023-04-10T01:32:41.593Z,53.81
2023-04-10T01:35:09.759Z,53.81
2023-04-10T01:37:43.746Z,53.61
2023-04-10T01:40:15.677Z,53.77
2023-04-10T01:42:53.325Z,53.82
2023-04-10T01:45:29.061Z,53.99
2023-04-10T01:47:56.761Z,54.21
2023-04-10T01:50:24.791Z,54.50
2023-04-10T01:52:53.051Z,54.00
2023-04-10T01:55:25.297Z,54.33
2023-04-10T01:57:57.930Z,54.17
2023-04-10T02:00:25.437Z,54.03
2023-04-10T02:02:53.056Z,53.92
2023-04-10T02:05:22.139Z,53.76
2023-04-10T02:08:37.603Z,53.48
2023-04-10T02:11:34.259Z,53.34
2023-04-10T02:14:04.675Z,53.47
2023-04-10T02:16:33.319Z,53.93
2023-04-10T02:19:02.445Z,53.92
2023-04-10T02:21:29.620Z,53.76
2023-04-10T02:23:58.464Z,53.60
2023-04-10T02:26:25.942Z,53.85
2023-04-10T02:28:53.131Z,53.83
2023-04-10T02:31:20.362Z,53.48
2023-04-10T02:33:48.404Z,53.80
2023-04-10T02:36:15.632Z,53.83
2023-04-10T02:38:42.769Z,53.91
2023-04-10T02:41:11.732Z,53.97
2023-04-10T02:43:38.983Z,54.03
2023-04-10T02:46:06.660Z,54.24
2023-04-10T02:48:38.589Z,54.31
2023-04-10T02:51:06.869Z,54.40
2023-04-10T02:53:34.491Z,54.35
2023-04-10T02:56:02.596Z,54.43
2023-04-10T02:58:30.668Z,54.72
2023-04-10T03:00:58.567Z,54.79
2023-04-10T03:03:51.834Z,54.90
2023-04-10T03:06:28.912Z,54.92
2023-04-10T03:08:58.014Z,54.94
2023-04-10T03:11:27.187Z,55.22
2023-04-10T03:13:54.880Z,55.22
2023-04-10T03:16:22.447Z,55.17
2023-04-10T03:18:49.901Z,55.22
2023-04-10T03:21:17.311Z,54.89
2023-04-10T03:23:44.391Z,54.80
2023-04-10T03:26:11.708Z,54.86
2023-04-10T03:28:39.860Z,54.51
2023-04-10T03:31:10.772Z,54.66
2023-04-10T03:33:39.268Z,54.27
2023-04-10T03:36:07.673Z,54.19
2023-04-10T03:38:34.874Z,54.19
2023-04-10T03:41:02.664Z,53.68
2023-04-10T03:43:32.202Z,53.47
2023-04-10T03:46:01.850Z,53.29
2023-04-10T03:48:30.707Z,52.92
2023-04-10T03:50:58.340Z,52.75
2023-04-10T03:53:25.944Z,53.09
2023-04-10T03:55:54.665Z,53.30
2023-04-10T03:58:23.396Z,53.12
2023-04-10T04:00:52.024Z,53.21
2023-04-10T04:03:33.323Z,52.80
2023-04-10T04:06:00.561Z,52.51
2023-04-10T04:08:40.004Z,52.67
2023-04-10T04:11:20.612Z,52.84
2023-04-10T04:13:59.631Z,52.94
2023-04-10T04:16:42.193Z,52.96
2023-04-10T04:19:22.337Z,52.89
2023-04-10T04:22:09.875Z,53.40
2023-04-10T04:25:10.714Z,53.76
2023-04-10T04:27:55.649Z,54.06
2023-04-10T04:30:32.585Z,54.17
2023-04-10T04:33:25.732Z,54.18
2023-04-10T04:36:02.305Z,53.89
2023-04-10T04:38:40.004Z,53.41
2023-04-10T04:41:12.842Z,53.13
2023-04-10T04:44:10.415Z,52.87
2023-04-10T04:46:56.147Z,52.74
2023-04-10T04:49:28.945Z,52.72
2023-04-10T04:52:25.730Z,52.98
2023-04-10T04:55:25.256Z,52.38
2023-04-10T04:58:00.065Z,52.63
2023-04-10T05:00:56.623Z,52.39
2023-04-10T05:03:42.720Z,52.15
2023-04-10T05:06:22.908Z,52.36
2023-04-10T05:09:10.530Z,52.23
2023-04-10T05:11:54.497Z,52.02
2023-04-10T05:14:40.256Z,51.76
2023-04-10T05:17:20.028Z,51.76
2023-04-10T05:20:08.326Z,51.37
2023-04-10T05:22:41.836Z,51.55
2023-04-10T05:25:24.230Z,51.92
2023-04-10T05:28:03.522Z,51.29
2023-04-10T05:30:49.415Z,51.15
2023-04-10T05:33:34.961Z,51.37
2023-04-10T05:36:11.310Z,51.21
2023-04-10T05:38:52.662Z,50.89
2023-04-10T05:41:52.191Z,50.59
2023-04-10T05:44:28.209Z,50.87
2023-04-10T05:47:08.338Z,50.68
2023-04-10T05:50:05.016Z,50.74
2023-04-10T05:52:55.550Z,50.91
2023-04-10T05:55:45.888Z,50.92
2023-04-10T05:58:22.611Z,50.90
2023-04-10T06:01:09.748Z,50.70
2023-04-10T06:03:45.227Z,50.32
2023-04-10T06:06:13.084Z,49.90
2023-04-10T06:08:41.239Z,49.49
2023-04-10T06:11:08.458Z,49.35
2023-04-10T06:13:36.072Z,48.72
2023-04-10T06:16:03.908Z,48.30
2023-04-10T06:18:32.341Z,47.46
2023-04-10T06:21:02.010Z,47.07
2023-04-10T06:23:29.223Z,46.77
2023-04-10T06:25:56.605Z,45.67
2023-04-10T06:28:23.988Z,45.65
2023-04-10T06:30:55.415Z,45.20
2023-04-10T06:33:30.683Z,44.64
2023-04-10T06:35:59.198Z,44.12
2023-04-10T06:38:26.498Z,43.75
2023-04-10T06:40:53.587Z,43.48
2023-04-10T06:43:20.734Z,43.94
2023-04-10T06:45:48.970Z,44.04
2023-04-10T06:48:16.198Z,43.86
2023-04-10T06:50:43.235Z,43.56
2023-04-10T06:53:10.316Z,43.41
2023-04-10T06:55:37.635Z,43.18
2023-04-10T06:58:04.855Z,42.97
2023-04-10T07:00:32.333Z,42.80
2023-04-10T07:02:59.466Z,42.49
2023-04-10T07:05:27.122Z,42.25
2023-04-10T07:07:54.550Z,41.93
2023-04-10T07:10:30.934Z,41.92
2023-04-10T07:12:58.968Z,41.66
2023-04-10T07:15:26.207Z,41.16
2023-04-10T07:17:53.500Z,40.95
2023-04-10T07:20:20.863Z,41.21
2023-04-10T07:22:48.011Z,40.71
2023-04-10T07:25:15.746Z,40.52
2023-04-10T07:27:45.346Z,40.17
2023-04-10T07:30:13.921Z,40.14
2023-04-10T07:32:42.416Z,40.33
2023-04-10T07:35:12.298Z,40.55
2023-04-10T07:37:39.951Z,40.83
2023-04-10T07:40:09.017Z,40.68
2023-04-10T07:42:39.869Z,40.61
2023-04-10T07:45:08.236Z,40.90
2023-04-10T07:47:39.961Z,40.68
2023-04-10T07:50:08.210Z,40.15
2023-04-10T07:52:35.435Z,39.77
2023-04-10T07:55:04.309Z,39.53
2023-04-10T07:57:32.383Z,39.44
2023-04-10T07:59:59.798Z,39.06
2023-04-10T08:02:27.073Z,39.14
2023-04-10T08:04:54.751Z,38.55
2023-04-10T08:07:22.777Z,38.44
2023-04-10T08:09:49.888Z,38.18
2023-04-10T08:12:17.716Z,38.34
2023-04-10T08:14:45.304Z,38.37
2023-04-10T08:17:14.940Z,38.63
2023-04-10T08:19:43.433Z,38.75
2023-04-10T08:22:10.755Z,38.52
2023-04-10T08:24:37.830Z,38.06
2023-04-10T08:27:04.857Z,37.62
2023-04-10T08:29:31.946Z,37.36
2023-04-10T08:32:01.179Z,37.33
2023-04-10T08:34:28.437Z,37.35
2023-04-10T08:36:55.742Z,37.26
2023-04-10T08:39:22.918Z,37.26
2023-04-10T08:41:50.063Z,37.41
2023-04-10T08:44:17.644Z,37.26
2023-04-10T08:46:45.633Z,37.26
2023-04-10T08:49:32.529Z,37.14
2023-04-10T08:52:03.558Z,38.89
2023-04-10T08:54:38.460Z,37.92
2023-04-10T08:57:09.722Z,38.74
2023-04-10T08:59:37.948Z,37.38
2023-04-10T09:02:06.505Z,36.91
2023-04-10T09:04:33.740Z,36.80
2023-04-10T09:07:01.325Z,36.57
2023-04-10T09:09:32.355Z,36.57
2023-04-10T09:12:02.618Z,37.00
2023-04-10T09:14:34.624Z,35.68
2023-04-10T09:17:21.471Z,36.39
2023-04-10T09:19:49.386Z,36.46
2023-04-10T09:22:17.027Z,35.92
2023-04-10T09:24:46.842Z,35.91
2023-04-10T09:27:38.586Z,35.50
2023-04-10T09:30:08.383Z,35.76
2023-04-10T09:32:41.763Z,35.50
2023-04-10T09:35:14.464Z,36.01
2023-04-10T09:37:45.219Z,35.56
2023-04-10T09:40:24.657Z,35.65
2023-04-10T09:42:53.096Z,34.87
2023-04-10T09:45:22.448Z,34.98
2023-04-10T09:48:07.092Z,34.76
2023-04-10T09:50:40.925Z,34.98
2023-04-10T09:53:11.304Z,35.05
2023-04-10T09:55:39.104Z,34.36
2023-04-10T09:58:07.596Z,34.38
2023-04-10T10:00:45.381Z,33.20
2023-04-10T10:03:16.946Z,33.71
2023-04-10T10:05:51.150Z,33.88
2023-04-10T10:08:18.510Z,34.29
2023-04-10T10:10:54.721Z,35.05
2023-04-10T10:13:31.914Z,35.53
2023-04-10T10:16:13.362Z,33.86
2023-04-10T10:19:17.880Z,34.18
2023-04-10T10:21:46.135Z,33.50
2023-04-10T10:24:14.149Z,33.50
2023-04-10T10:26:42.395Z,33.98
2023-04-10T10:29:14.160Z,33.48
2023-04-10T10:31:42.734Z,33.95
2023-04-10T10:34:09.992Z,35.23
2023-04-10T10:36:38.156Z,35.05
2023-04-10T10:39:20.192Z,33.86
2023-04-10T10:42:06.748Z,34.29
2023-04-10T10:45:05.873Z,34.29
2023-04-10T10:47:41.182Z,33.79
2023-04-10T10:50:08.768Z,33.26
2023-04-10T10:52:47.572Z,32.96
2023-04-10T10:55:32.670Z,33.05
2023-04-10T10:58:05.761Z,31.81
2023-04-10T11:00:51.418Z,32.97
2023-04-10T11:03:18.772Z,31.67
2023-04-10T11:06:02.964Z,32.78
2023-04-10T11:08:35.840Z,32.66
2023-04-10T11:11:10.882Z,32.25
2023-04-10T11:13:41.285Z,31.91
2023-04-10T11:16:10.796Z,30.82
2023-04-10T11:18:53.380Z,32.27
2023-04-10T11:21:24.242Z,33.35
2023-04-10T11:23:52.846Z,32.63
2023-04-10T11:26:35.486Z,31.72
2023-04-10T11:29:17.923Z,31.53
2023-04-10T11:31:57.155Z,31.07
2023-04-10T11:34:25.425Z,30.14
2023-04-10T11:36:53.340Z,30.35
2023-04-10T11:39:21.617Z,30.67
2023-04-10T11:41:53.983Z,28.97
2023-04-10T11:44:28.565Z,28.03
2023-04-10T11:46:55.727Z,25.37
2023-04-10T11:49:32.883Z,24.95
2023-04-10T11:52:00.193Z,24.49
2023-04-10T11:54:29.171Z,22.36
2023-04-10T11:57:02.160Z,21.63
2023-04-10T11:59:31.064Z,22.26
2023-04-10T12:02:09.560Z,21.05
2023-04-10T12:04:37.959Z,21.56
2023-04-10T12:07:05.499Z,20.71
2023-04-10T12:09:32.664Z,20.98
2023-04-10T12:12:03.583Z,20.62
2023-04-10T12:14:35.610Z,19.69
2023-04-10T12:17:04.723Z,19.98
2023-04-10T12:19:33.342Z,19.40
2023-04-10T12:22:03.971Z,19.95
2023-04-10T12:24:51.747Z,19.36
2023-04-10T12:27:26.592Z,19.35
2023-04-10T12:29:56.600Z,18.91
2023-04-10T12:32:25.761Z,18.86
2023-04-10T12:34:58.367Z,18.28
2023-04-10T12:37:49.989Z,17.80
2023-04-10T12:40:18.089Z,17.98
2023-04-10T12:42:45.126Z,17.57
2023-04-10T12:45:14.170Z,17.60
2023-04-10T12:47:52.188Z,17.58
2023-04-10T12:50:21.141Z,17.80
2023-04-10T12:53:09.374Z,18.24
2023-04-10T12:55:36.568Z,17.66
2023-04-10T12:58:22.850Z,17.65
2023-04-10T13:00:50.107Z,17.61
2023-04-10T13:03:17.287Z,18.17
2023-04-10T13:05:45.175Z,17.30
2023-04-10T13:08:12.267Z,17.39
2023-04-10T13:10:40.686Z,17.38
2023-04-10T13:13:08.423Z,18.43
2023-04-10T13:15:35.689Z,18.69
2023-04-10T13:18:05.187Z,18.44
2023-04-10T13:20:37.858Z,18.20
2023-04-10T13:23:05.422Z,17.87
2023-04-10T13:25:35.705Z,17.31
2023-04-10T13:28:03.559Z,17.60
2023-04-10T13:30:31.360Z,18.71
2023-04-10T13:32:58.528Z,18.46
2023-04-10T13:35:25.611Z,17.45
2023-04-10T13:37:55.270Z,17.81
2023-04-10T13:40:22.453Z,17.75
2023-04-10T13:42:49.576Z,18.66
2023-04-10T13:45:16.784Z,18.64
2023-04-10T13:47:44.033Z,17.86
2023-04-10T13:50:11.480Z,17.25
2023-04-10T13:52:38.684Z,17.38
2023-04-10T13:55:07.274Z,17.56
2023-04-10T13:57:34.463Z,17.08
2023-04-10T14:00:01.720Z,17.92
2023-04-10T14:02:39.962Z,19.56
2023-04-10T14:05:08.342Z,20.39
2023-04-10T14:07:35.715Z,20.86
2023-04-10T14:10:03.160Z,19.39
2023-04-10T14:12:30.292Z,18.79
2023-04-10T14:14:57.334Z,17.74
2023-04-10T14:17:24.826Z,17.47
2023-04-10T14:19:53.804Z,17.19
2023-04-10T14:22:21.227Z,17.20
2023-04-10T14:24:48.961Z,17.85
2023-04-10T14:27:17.236Z,17.94
2023-04-10T14:29:53.896Z,17.87
2023-04-10T14:32:22.383Z,18.64
2023-04-10T14:34:49.677Z,18.23
2023-04-10T14:37:19.058Z,18.06
2023-04-10T14:39:46.481Z,17.49
2023-04-10T14:42:13.733Z,17.49
2023-04-10T14:44:41.146Z,17.81
2023-04-10T14:47:08.567Z,17.83
2023-04-10T14:49:35.762Z,17.52
2023-04-10T14:52:02.964Z,17.93
2023-04-10T14:54:30.317Z,17.61
2023-04-10T14:56:58.266Z,18.43
2023-04-10T14:59:26.834Z,18.52
2023-04-10T15:01:54.480Z,18.54
2023-04-10T15:04:24.396Z,17.99
2023-04-10T15:07:07.075Z,17.34
2023-04-10T15:09:37.516Z,17.51
2023-04-10T15:12:04.956Z,17.45
2023-04-10T15:14:35.069Z,17.03
2023-04-10T15:17:02.264Z,16.96
2023-04-10T15:19:29.556Z,17.11
2023-04-10T15:21:56.913Z,17.29
2023-04-10T15:24:24.070Z,17.41
2023-04-10T15:26:53.510Z,17.28
2023-04-10T15:29:20.653Z,17.21
2023-04-10T15:31:48.053Z,17.54
2023-04-10T15:34:15.377Z,17.65
2023-04-10T15:36:42.752Z,18.01
2023-04-10T15:39:10.988Z,18.04
2023-04-10T15:41:38.452Z,18.52
2023-04-10T15:44:05.996Z,18.98
2023-04-10T15:46:34.204Z,19.28
2023-04-10T15:49:01.357Z,19.60
2023-04-10T15:51:28.448Z,19.13
2023-04-10T15:53:56.049Z,19.96
2023-04-10T15:56:23.358Z,19.95
2023-04-10T15:58:50.414Z,19.42
2023-04-10T16:01:17.597Z,19.21
2023-04-10T16:03:45.363Z,19.40
2023-04-10T16:06:13.469Z,19.42
2023-04-10T16:08:40.602Z,19.69
2023-04-10T16:11:07.761Z,19.65
2023-04-10T16:13:34.828Z,19.28
2023-04-10T16:16:02.020Z,19.61
2023-04-10T16:18:29.164Z,19.46
2023-04-10T16:20:56.357Z,19.84
2023-04-10T16:23:23.448Z,20.07
2023-04-10T16:25:50.735Z,20.80
2023-04-10T16:28:17.862Z,20.92
2023-04-10T16:30:45.134Z,21.57
2023-04-10T16:33:12.185Z,22.54
2023-04-10T16:35:39.483Z,22.93
2023-04-10T16:38:06.601Z,23.82
2023-04-10T16:40:33.731Z,23.98
2023-04-10T16:43:01.976Z,24.23
2023-04-10T16:45:29.402Z,24.67
2023-04-10T16:47:56.648Z,24.66
2023-04-10T16:50:24.002Z,24.78
2023-04-10T16:52:51.258Z,24.49
2023-04-10T16:55:18.530Z,24.65
2023-04-10T16:57:46.342Z,24.81
2023-04-10T17:00:14.149Z,24.62
2023-04-10T17:02:42.970Z,24.49
2023-04-10T17:05:11.147Z,24.86
2023-04-10T17:07:38.383Z,25.17
2023-04-10T17:10:06.214Z,25.79
2023-04-10T17:12:33.323Z,25.97
2023-04-10T17:15:00.459Z,26.52
2023-04-10T17:17:27.718Z,27.13
2023-04-10T17:19:55.075Z,27.50
2023-04-10T17:22:23.394Z,27.94
2023-04-10T17:24:50.657Z,28.32
2023-04-10T17:27:17.890Z,28.72
2023-04-10T17:29:44.989Z,28.70
2023-04-10T17:32:12.122Z,29.22
2023-04-10T17:34:39.206Z,29.53
2023-04-10T17:37:06.370Z,29.82
2023-04-10T17:39:33.496Z,30.25
2023-04-10T17:42:01.513Z,30.63
2023-04-10T17:44:28.655Z,30.84
2023-04-10T17:46:55.823Z,31.14
2023-04-10T17:49:23.045Z,31.10
2023-04-10T17:51:50.392Z,31.49
2023-04-10T17:54:17.525Z,31.99
2023-04-10T17:56:44.777Z,31.98
2023-04-10T17:59:11.956Z,32.28
2023-04-10T18:01:39.251Z,32.52
2023-04-10T18:04:07.150Z,32.54
2023-04-10T18:06:34.566Z,32.75
2023-04-10T18:09:01.670Z,33.03
2023-04-10T18:11:28.809Z,32.99
2023-04-10T18:13:55.862Z,33.10
2023-04-10T18:16:23.052Z,33.35
2023-04-10T18:18:50.256Z,33.58
2023-04-10T18:21:17.563Z,33.55
2023-04-10T18:23:44.842Z,33.86
2023-04-10T18:26:12.795Z,34.29
2023-04-10T18:28:42.013Z,34.06
2023-04-10T18:31:09.234Z,34.20
2023-04-10T18:33:36.423Z,34.05
2023-04-10T18:36:03.956Z,34.14
2023-04-10T18:38:31.177Z,34.23
2023-04-10T18:40:58.486Z,34.43
2023-04-10T18:43:27.603Z,34.37
2023-04-10T18:45:55.339Z,34.40
2023-04-10T18:48:22.817Z,34.64
2023-04-10T18:50:53.315Z,34.63
2023-04-10T18:53:23.776Z,34.74
2023-04-10T18:55:52.896Z,34.71
2023-04-10T18:58:21.803Z,34.89
2023-04-10T19:00:49.253Z,34.88
2023-04-10T19:03:16.726Z,35.27
2023-04-10T19:05:44.765Z,35.13
2023-04-10T19:08:14.540Z,35.51
2023-04-10T19:10:42.967Z,35.59
2023-04-10T19:13:11.934Z,35.61
2023-04-10T19:15:46.044Z,35.71
2023-04-10T19:18:15.055Z,35.88
2023-04-10T19:20:50.970Z,35.87
2023-04-10T19:23:20.638Z,36.12
2023-04-10T19:25:53.326Z,36.26
2023-04-10T19:28:20.617Z,36.12
2023-04-10T19:30:47.941Z,36.12
2023-04-10T19:33:15.105Z,36.25
2023-04-10T19:35:42.220Z,36.35
2023-04-10T19:38:09.393Z,36.51
2023-04-10T19:40:36.854Z,36.73
2023-04-10T19:43:04.243Z,36.70
2023-04-10T19:45:33.064Z,36.89
2023-04-10T19:48:00.513Z,36.79
2023-04-10T19:50:30.551Z,37.31
2023-04-10T19:52:58.074Z,37.50
2023-04-10T19:55:26.039Z,37.59
2023-04-10T19:57:53.289Z,38.01
2023-04-10T20:00:20.778Z,37.80
2023-04-10T20:02:48.216Z,38.07
2023-04-10T20:05:15.623Z,38.70
2023-04-10T20:07:42.904Z,38.70
2023-04-10T20:10:10.288Z,38.58
2023-04-10T20:12:37.435Z,38.73
2023-04-10T20:15:05.459Z,38.99
2023-04-10T20:17:32.570Z,39.28
2023-04-10T20:19:59.794Z,39.41
2023-04-10T20:22:27.118Z,39.17
2023-04-10T20:24:54.249Z,39.19
2023-04-10T20:27:21.336Z,39.58
2023-04-10T20:29:48.517Z,39.57
2023-04-10T20:32:15.788Z,39.45
2023-04-10T20:34:42.925Z,39.61
2023-04-10T20:37:10.117Z,39.64
2023-04-10T20:39:38.558Z,39.84
2023-04-10T20:42:06.603Z,39.85
2023-04-10T20:44:37.698Z,39.95
2023-04-10T20:47:08.161Z,40.20
2023-04-10T20:49:37.568Z,40.35
2023-04-10T20:52:08.618Z,40.84
2023-04-10T20:54:36.107Z,40.46
2023-04-10T20:57:06.025Z,40.60
2023-04-10T20:59:33.537Z,40.58
2023-04-10T21:02:00.930Z,40.64
2023-04-10T21:04:28.045Z,40.91
2023-04-10T21:06:55.324Z,40.91
2023-04-10T21:09:22.405Z,41.11
2023-04-10T21:11:49.460Z,41.08
2023-04-10T21:14:16.574Z,40.96
2023-04-10T21:16:45.773Z,41.04
2023-04-10T21:19:13.459Z,41.11
2023-04-10T21:21:40.578Z,41.10
2023-04-10T21:24:07.728Z,41.38
2023-04-10T21:26:34.853Z,41.49
2023-04-10T21:29:02.064Z,41.51
2023-04-10T21:31:29.256Z,41.43
2023-04-10T21:33:56.413Z,41.59
2023-04-10T21:36:23.665Z,41.57
2023-04-10T21:38:50.831Z,41.63
2023-04-10T21:41:17.987Z,41.76
2023-04-10T21:43:45.299Z,41.85
2023-04-10T21:46:12.471Z,42.27
2023-04-10T21:48:39.692Z,42.29
2023-04-10T21:51:07.017Z,42.64
2023-04-10T21:53:34.131Z,42.50
2023-04-10T21:56:01.235Z,42.71
2023-04-10T21:58:28.330Z,42.59
2023-04-10T22:00:55.470Z,42.75
2023-04-10T22:03:23.228Z,42.46
2023-04-10T22:05:50.692Z,42.85
2023-04-10T22:08:19.965Z,43.48
2023-04-10T22:10:48.179Z,42.92
2023-04-10T22:13:27.325Z,43.56
2023-04-10T22:15:57.253Z,43.72
2023-04-10T22:18:24.364Z,44.02
2023-04-10T22:20:51.490Z,44.08
2023-04-10T22:23:18.692Z,44.33
2023-04-10T22:25:45.802Z,44.24
2023-04-10T22:28:13.059Z,44.33
2023-04-10T22:30:40.187Z,44.41
2023-04-10T22:33:07.406Z,44.10
2023-04-10T22:35:34.570Z,44.14
2023-04-10T22:38:03.837Z,44.24
2023-04-10T22:40:31.600Z,44.58
2023-04-10T22:42:58.664Z,44.64
2023-04-10T22:45:25.946Z,44.51
2023-04-10T22:47:53.003Z,44.51
2023-04-10T22:50:21.175Z,44.53
2023-04-10T22:52:48.335Z,44.11
2023-04-10T22:55:15.400Z,43.86
2023-04-10T22:57:42.522Z,43.34
2023-04-10T23:00:10.395Z,43.13
2023-04-10T23:02:37.559Z,43.08
2023-04-10T23:05:05.344Z,43.19
2023-04-10T23:07:32.503Z,43.03
2023-04-10T23:10:00.746Z,43.11
2023-04-10T23:12:27.804Z,42.91
2023-04-10T23:14:54.944Z,42.77
2023-04-10T23:17:22.095Z,42.52
2023-04-10T23:19:49.149Z,42.38
2023-04-10T23:22:16.722Z,41.65
2023-04-10T23:24:43.796Z,41.58
2023-04-10T23:27:10.856Z,42.18
2023-04-10T23:29:37.891Z,42.57
2023-04-10T23:32:05.137Z,41.81
2023-04-10T23:34:32.193Z,41.51
2023-04-10T23:36:59.391Z,41.39
2023-04-10T23:39:26.467Z,41.09
2023-04-10T23:41:53.555Z,40.98
2023-04-10T23:44:20.630Z,40.73
2023-04-10T23:46:49.426Z,40.75
2023-04-10T23:49:17.630Z,40.79
2023-04-10T23:51:45.582Z,40.66
2023-04-10T23:54:13.446Z,40.71
2023-04-10T23:56:40.937Z,41.02
2023-04-10T23:59:08.031Z,41.02
